Flight Track Log - Related Links

Times and Time Zones

All times are in EDT time to prevent confusion due to time zone crossing. See the N507PD flight status page for this flight to view local times or setup timezone preferences in your user account.

Time Position Orientation Groundspeed Altitude Reporting Facility
EDT Latitude Longitude Course Direction KTS MPH feet Rate Location/Type
Fri 08:08:47 PM 42.2000 -87.8000 62° Northeast 290 334 6,700  Level Chicago TRACON
Fri 08:10:06 PM 42.1303 -87.7839 170° South 272 313 10,000 2,681 Climbing Chicago Center
Fri 08:11:08 PM 42.0417 -87.8328 202° Southwest 286 329 13,000 2,565 Climbing Chicago Center
Fri 08:12:10 PM 41.9644 -87.8753 202° Southwest 300 345 15,300 2,226 Climbing Chicago Center
Fri 08:13:00 PM 41.6638 -88.2155 197° South  Level Estimated
Fri 08:13:12 PM 41.8778 -87.8881 186° South 316 364 17,600  Level Chicago Center
Fri 08:14:14 PM 41.7883 -87.8969 184° South 322 371 19,700 1,839 Climbing Chicago Center
Fri 08:15:16 PM 41.7006 -87.9156 189° South 321 369 21,400 1,694 Climbing Chicago Center
Fri 08:16:18 PM 41.5978 -87.9633 199° South 328 377 23,200 1,597 Climbing Chicago Center
Fri 08:17:20 PM 41.5150 -88.0094 203° Southwest 324 373 24,700 1,355 Climbing Chicago Center
Fri 08:18:22 PM 41.4436 -88.0550 206° Southwest 322 371 26,000 629 Climbing Chicago Center
Fri 08:19:24 PM 41.3553 -88.1325 213° Southwest 320 368 26,000  Level Chicago Center
Fri 08:20:26 PM 41.2750 -88.1975 211° Southwest 329 379 26,000  Level Chicago Center
Fri 08:21:30 PM 41.1964 -88.2608 211° Southwest 331 381 26,000  Level Chicago Center
Fri 08:22:31 PM 41.1189 -88.3228 211° Southwest 329 379 26,000  Level Chicago Center
Fri 08:23:33 PM 41.0408 -88.3861 211° Southwest 330 380 26,000 387 Level Chicago Center
Fri 08:24:35 PM 40.9483 -88.4603 211° Southwest 326 375 26,800 871 Climbing Chicago Center
Fri 08:25:37 PM 40.8775 -88.5167 211° Southwest 304 350 27,800 581 Climbing Chicago Center
Fri 08:26:39 PM 40.8044 -88.5753 211° Southwest 307 353 28,000 97 Climbing Chicago Center
Fri 08:27:41 PM 40.7261 -88.6381 211° Southwest 325 374 28,000  Level Chicago Center
Fri 08:28:43 PM 40.6431 -88.7025 210° Southwest 344 396 28,000  Level Chicago Center
Fri 08:29:45 PM 40.5411 -88.7831 211° Southwest 357 411 28,000  Level Chicago Center
Fri 08:30:47 PM 40.4656 -88.8419 211° Southwest 362 417 28,000  Level Chicago Center
Fri 08:31:49 PM 40.3778 -88.9108 211° Southwest 365 420 28,000  Level Chicago Center
Fri 08:32:51 PM 40.2719 -88.9922 210° Southwest 366 421 28,000  Level Chicago Center
Fri 08:33:54 PM 40.1847 -89.0606 211° Southwest 366 421 28,000  Level Chicago Center
Fri 08:34:55 PM 40.0967 -89.1292 211° Southwest 367 422 28,000  Level Chicago Center
Fri 08:35:40 PM 40.0253 -89.1842 211° Southwest 366 421 28,000 -168 Level Kansas City Center
Fri 08:36:42 PM 39.9403 -89.2492 210° Southwest 360 414 27,700 -878 Descending Kansas City Center
Fri 08:37:43 PM 39.8525 -89.3161 210° Southwest 361 415 26,200 -1,512 Descending Kansas City Center
Fri 08:38:45 PM 39.7647 -89.3850 211° Southwest 366 421 24,600 -1,415 Descending Kansas City Center
Fri 08:39:46 PM 39.6761 -89.4517 210° Southwest 373 429 23,300 -1,854 Descending Kansas City Center
Fri 08:40:48 PM 39.5900 -89.5178 211° Southwest 365 420 20,800 -2,468 Descending Kansas City Center
Fri 08:41:50 PM 39.5064 -89.5800 210° Southwest 352 405 18,200 -2,732 Descending Kansas City Center
Fri 08:42:51 PM 39.4081 -89.6567 211° Southwest 346 398 15,200 -2,683 Descending Kansas City Center
Fri 08:43:53 PM 39.3239 -89.7192 210° Southwest 348 400 12,700 -2,439 Descending Kansas City Center
Fri 08:44:54 PM 39.2472 -89.7781 211° Southwest 330 380 10,200 -2,488 Descending Kansas City Center
Fri 08:45:56 PM 39.1683 -89.8378 210° Southwest 312 359 7,600 -2,390 Descending Kansas City Center
Fri 08:46:57 PM 39.1011 -89.8881 210° Southwest 283 326 5,300 -1,366 Descending Kansas City Center
Fri 08:47:59 PM 39.0239 -89.9189 197° South 288 331 4,800 -976 Descending Kansas City Center
Fri 08:49:00 PM 38.9494 -89.9200 181° South 270 311 3,300 -1,268 Descending Kansas City Center
Fri 08:50:02 PM 38.8886 -89.9433 197° South 263 303 2,200 -927 Descending Kansas City Center
Fri 08:51:03 PM 38.8750 -89.9961 252° West 206 237 1,400 -829 Descending Kansas City Center
Fri 08:52:05 PM 38.8897 -90.0369 295° West 154 177 500 -871 Descending Kansas City Center
Fri 08:54:00 PM 38.8833 -90.0333 207° Southwest  Level FlightAware Approximate
Fri 09:01:00 PM 38.8899 -90.0460 207° Southwest  Level Estimated

Login

Don't have an account? Register now (free) for customized features, flight alerts, and more!